createdAt,value
2018-01-16T00:00:08.650Z,5.33
2018-01-16T00:02:36.406Z,5.50
2018-01-16T00:05:04.152Z,6.70
2018-01-16T00:07:31.843Z,5.60
2018-01-16T00:09:59.638Z,5.60
2018-01-16T00:12:27.370Z,5.60
2018-01-16T00:14:55.053Z,6.27
2018-01-16T00:17:22.813Z,6.37
2018-01-16T00:19:50.526Z,5.30
2018-01-16T00:22:29.970Z,5.80
2018-01-16T00:24:57.672Z,4.57
2018-01-16T00:27:25.422Z,6.00
2018-01-16T00:29:53.119Z,6.23
2018-01-16T00:32:20.867Z,4.70
2018-01-16T00:34:48.622Z,4.10
2018-01-16T00:37:16.383Z,6.27
2018-01-16T00:39:44.050Z,5.87
2018-01-16T00:42:11.844Z,5.60
2018-01-16T00:44:39.637Z,5.17
2018-01-16T00:47:07.309Z,6.37
2018-01-16T00:49:35.445Z,4.97
2018-01-16T00:52:03.266Z,5.67
2018-01-16T00:54:31.040Z,4.87
2018-01-16T00:56:58.707Z,6.53
2018-01-16T00:59:26.456Z,6.27
2018-01-16T01:01:54.145Z,4.73
2018-01-16T01:04:21.866Z,5.70
2018-01-16T01:06:49.539Z,5.87
2018-01-16T01:09:17.268Z,5.00
2018-01-16T01:11:44.939Z,4.77
2018-01-16T01:14:12.677Z,5.10
2018-01-16T01:16:40.402Z,5.00
2018-01-16T01:19:08.144Z,5.80
2018-01-16T01:21:35.857Z,6.00
2018-01-16T01:24:03.605Z,7.10
2018-01-16T01:26:31.351Z,4.73
2018-01-16T01:28:59.062Z,5.00
2018-01-16T01:31:26.800Z,5.47
2018-01-16T01:33:54.522Z,6.03
2018-01-16T01:36:24.939Z,4.97
2018-01-16T01:38:52.694Z,7.77
2018-01-16T01:41:20.412Z,10.30
2018-01-16T01:43:48.102Z,8.67
2018-01-16T01:46:15.863Z,10.03
2018-01-16T01:48:43.623Z,9.47
2018-01-16T01:51:11.300Z,8.90
2018-01-16T01:53:39.018Z,8.63
2018-01-16T01:56:06.713Z,9.20
2018-01-16T01:58:34.433Z,8.33
2018-01-16T02:01:02.130Z,8.87
2018-01-16T02:03:30.209Z,9.07
2018-01-16T02:05:57.913Z,9.30
2018-01-16T02:08:25.620Z,9.27
2018-01-16T02:10:53.356Z,9.47
2018-01-16T02:13:21.155Z,8.90
2018-01-16T02:15:48.863Z,11.13
2018-01-16T02:18:16.561Z,10.27
2018-01-16T02:20:44.284Z,9.60
2018-01-16T02:23:11.980Z,9.43
2018-01-16T02:25:39.708Z,10.13
2018-01-16T02:28:07.441Z,9.53
2018-01-16T02:30:35.267Z,10.93
2018-01-16T02:33:02.985Z,11.47
2018-01-16T02:35:30.719Z,10.37
2018-01-16T02:37:58.434Z,9.70
2018-01-16T02:40:26.206Z,10.47
2018-01-16T02:42:53.957Z,12.13
2018-01-16T02:45:21.795Z,9.90
2018-01-16T02:47:49.574Z,11.50
2018-01-16T02:50:17.408Z,11.40
2018-01-16T02:52:45.167Z,10.60
2018-01-16T02:55:12.903Z,10.03
2018-01-16T02:57:40.626Z,11.63
2018-01-16T03:00:08.390Z,11.10
2018-01-16T03:02:36.119Z,10.00
2018-01-16T03:05:03.904Z,10.67
2018-01-16T03:07:31.621Z,12.57
2018-01-16T03:09:59.333Z,9.97
2018-01-16T03:12:27.093Z,9.70
2018-01-16T03:14:54.933Z,10.40
2018-01-16T03:17:22.679Z,10.13
2018-01-16T03:19:50.446Z,10.37
2018-01-16T03:22:18.152Z,10.77
2018-01-16T03:24:45.874Z,10.87
2018-01-16T03:27:13.712Z,10.67
2018-01-16T03:29:41.395Z,10.17
2018-01-16T03:32:09.064Z,9.80
2018-01-16T03:34:36.807Z,9.47
2018-01-16T03:37:04.486Z,10.73
2018-01-16T03:39:32.280Z,10.50
2018-01-16T03:42:00.035Z,10.00
2018-01-16T03:44:27.713Z,8.77
2018-01-16T03:46:55.611Z,9.50
2018-01-16T03:49:23.280Z,10.53
2018-01-16T03:51:50.946Z,9.50
2018-01-16T03:54:18.689Z,8.80
2018-01-16T03:56:46.420Z,7.37
2018-01-16T03:59:14.223Z,8.20
2018-01-16T04:01:41.915Z,7.27
2018-01-16T04:04:09.595Z,10.20
2018-01-16T04:06:37.343Z,9.33
2018-01-16T04:09:05.167Z,11.00
2018-01-16T04:11:32.839Z,9.80
2018-01-16T04:14:00.627Z,9.30
2018-01-16T04:16:28.408Z,12.80
2018-01-16T04:18:56.130Z,13.30
2018-01-16T04:21:23.912Z,11.80
2018-01-16T04:23:51.593Z,12.20
2018-01-16T04:26:19.311Z,12.23
2018-01-16T04:28:48.028Z,9.77
2018-01-16T04:31:15.749Z,11.27
2018-01-16T04:33:43.473Z,11.00
2018-01-16T04:36:11.156Z,11.57
2018-01-16T04:38:38.884Z,12.07
2018-01-16T04:41:06.594Z,13.60
2018-01-16T04:43:34.285Z,10.67
2018-01-16T04:46:02.016Z,12.27
2018-01-16T04:48:29.760Z,11.37
2018-01-16T04:50:57.484Z,11.60
2018-01-16T04:53:25.347Z,12.73
2018-01-16T04:55:53.132Z,12.17
2018-01-16T04:58:20.811Z,13.63
2018-01-16T05:00:48.548Z,11.50
2018-01-16T05:03:16.285Z,11.60
2018-01-16T05:05:43.994Z,10.27
2018-01-16T05:08:11.686Z,11.30
2018-01-16T05:10:39.398Z,11.43
2018-01-16T05:13:07.060Z,11.93
2018-01-16T05:15:34.775Z,13.37
2018-01-16T05:18:02.493Z,12.07
2018-01-16T05:20:30.311Z,10.47
2018-01-16T05:22:58.022Z,11.10
2018-01-16T05:25:25.801Z,12.90
2018-01-16T05:27:53.671Z,12.20
2018-01-16T05:30:21.372Z,11.50
2018-01-16T05:32:49.077Z,11.50
2018-01-16T05:35:16.853Z,11.80
2018-01-16T05:37:44.579Z,13.00
2018-01-16T05:40:12.430Z,14.07
2018-01-16T05:42:40.195Z,14.23
2018-01-16T05:45:07.945Z,13.10
2018-01-16T05:47:35.752Z,13.73
2018-01-16T05:50:03.573Z,14.13
2018-01-16T05:52:31.463Z,13.20
2018-01-16T05:54:59.218Z,13.90
2018-01-16T05:57:27.013Z,13.90
2018-01-16T05:59:54.693Z,13.77
2018-01-16T06:02:22.437Z,16.93
2018-01-16T06:04:50.171Z,15.50
2018-01-16T06:07:17.886Z,12.60
2018-01-16T06:09:45.566Z,13.33
2018-01-16T06:12:13.260Z,13.43
2018-01-16T06:14:41.010Z,14.00
2018-01-16T06:17:08.806Z,14.17
2018-01-16T06:19:36.580Z,12.97
2018-01-16T06:22:04.278Z,11.93
2018-01-16T06:24:32.043Z,12.53
2018-01-16T06:26:59.786Z,13.40
2018-01-16T06:29:27.534Z,13.93
2018-01-16T06:31:55.243Z,15.03
2018-01-16T06:34:22.963Z,13.47
2018-01-16T06:36:50.666Z,16.07
2018-01-16T06:39:18.410Z,13.37
2018-01-16T06:41:46.087Z,16.60
2018-01-16T06:44:13.874Z,15.37
2018-01-16T06:46:42.699Z,16.27
2018-01-16T06:49:10.471Z,13.20
2018-01-16T06:51:38.191Z,15.30
2018-01-16T06:54:05.979Z,16.90
2018-01-16T06:56:33.723Z,15.90
2018-01-16T06:59:01.441Z,15.60
2018-01-16T07:01:29.186Z,13.40
2018-01-16T07:03:56.967Z,14.80
2018-01-16T07:06:24.809Z,13.17
2018-01-16T07:08:52.543Z,15.67
2018-01-16T07:11:20.278Z,17.47
2018-01-16T07:13:48.008Z,16.80
2018-01-16T07:16:15.783Z,17.03
2018-01-16T07:18:43.503Z,14.37
2018-01-16T07:21:11.263Z,15.57
2018-01-16T07:23:38.996Z,15.53
2018-01-16T07:26:06.815Z,14.63
2018-01-16T07:28:34.554Z,15.80
2018-01-16T07:31:02.276Z,15.70
2018-01-16T07:33:30.032Z,15.10
2018-01-16T07:35:57.825Z,13.53
2018-01-16T07:38:25.528Z,15.80
2018-01-16T07:40:53.297Z,16.30
2018-01-16T07:43:21.065Z,15.70
2018-01-16T07:45:48.772Z,14.40
2018-01-16T07:48:16.509Z,15.53
2018-01-16T07:50:44.226Z,15.00
2018-01-16T07:53:11.988Z,12.50
2018-01-16T07:55:40.106Z,13.93
2018-01-16T07:58:08.010Z,12.33
2018-01-16T08:00:35.734Z,13.50
2018-01-16T08:03:03.451Z,14.10
2018-01-16T08:05:31.139Z,13.37
2018-01-16T08:07:58.892Z,13.73
2018-01-16T08:10:26.568Z,14.53
2018-01-16T08:12:54.397Z,15.13
2018-01-16T08:15:22.062Z,13.70
2018-01-16T08:17:50.347Z,15.30
2018-01-16T08:20:18.498Z,14.53
2018-01-16T08:22:46.229Z,14.73
2018-01-16T08:25:14.128Z,15.60
2018-01-16T08:27:41.834Z,14.80
2018-01-16T08:30:09.599Z,16.30
2018-01-16T08:32:38.087Z,15.80
2018-01-16T08:35:05.782Z,15.17
2018-01-16T08:37:33.547Z,15.40
2018-01-16T08:40:01.372Z,15.03
2018-01-16T08:42:29.190Z,15.00
2018-01-16T08:44:56.912Z,17.00
2018-01-16T08:47:24.677Z,14.67
2018-01-16T08:49:52.376Z,16.50
2018-01-16T08:52:20.111Z,15.07
2018-01-16T08:54:47.941Z,16.00
2018-01-16T08:57:15.641Z,15.93
2018-01-16T08:59:43.411Z,14.70
2018-01-16T09:02:11.159Z,15.17
2018-01-16T09:04:38.849Z,12.90
2018-01-16T09:07:06.517Z,12.43
2018-01-16T09:09:34.266Z,15.00
2018-01-16T09:12:01.978Z,13.20
2018-01-16T09:14:29.747Z,15.63
2018-01-16T09:16:57.482Z,14.10
2018-01-16T09:19:25.242Z,13.40
2018-01-16T09:21:53.037Z,15.77
2018-01-16T09:24:20.791Z,12.43
2018-01-16T09:26:48.975Z,11.87
2018-01-16T09:29:16.663Z,13.17
2018-01-16T09:31:44.455Z,12.67
2018-01-16T09:34:12.131Z,14.77
2018-01-16T09:36:39.870Z,13.70
2018-01-16T09:39:07.588Z,14.60
2018-01-16T09:41:35.309Z,15.30
2018-01-16T09:44:03.228Z,13.03
2018-01-16T09:46:30.928Z,12.57
2018-01-16T09:48:58.687Z,12.60
2018-01-16T09:51:26.471Z,14.93
2018-01-16T09:53:54.250Z,16.97
2018-01-16T09:56:21.968Z,16.63
2018-01-16T09:58:49.714Z,14.30
2018-01-16T10:01:17.395Z,15.07
2018-01-16T10:03:45.137Z,15.70
2018-01-16T10:06:12.914Z,13.70
2018-01-16T10:08:40.674Z,13.90
2018-01-16T10:11:08.389Z,13.50
2018-01-16T10:13:36.831Z,14.67
2018-01-16T10:16:04.588Z,12.40
2018-01-16T10:18:32.356Z,14.60
2018-01-16T10:21:00.121Z,15.53
2018-01-16T10:23:27.800Z,12.90
2018-01-16T10:25:55.555Z,14.10
2018-01-16T10:28:23.812Z,11.07
2018-01-16T10:30:51.640Z,11.80
2018-01-16T10:33:19.399Z,12.77
2018-01-16T10:38:21.088Z,15.17
2018-01-16T10:40:49.803Z,13.10
2018-01-16T10:43:17.590Z,12.50
2018-01-16T10:45:45.342Z,12.70
2018-01-16T10:48:13.089Z,13.00
2018-01-16T10:50:40.840Z,13.13
2018-01-16T10:53:08.597Z,13.27
2018-01-16T10:55:36.416Z,13.90
2018-01-16T10:58:04.208Z,11.20
2018-01-16T11:00:32.002Z,12.10
2018-01-16T11:02:59.714Z,10.20
2018-01-16T11:05:27.483Z,10.60
2018-01-16T11:07:55.380Z,14.87
2018-01-16T11:10:23.090Z,14.30
2018-01-16T11:12:50.794Z,12.87
2018-01-16T11:15:18.581Z,13.30
2018-01-16T11:17:46.330Z,12.17
2018-01-16T11:20:14.082Z,11.53
2018-01-16T11:22:41.883Z,11.60
2018-01-16T11:25:09.638Z,13.97
2018-01-16T11:27:37.418Z,13.03
2018-01-16T11:30:05.183Z,13.20
2018-01-16T11:32:33.006Z,16.17
2018-01-16T11:35:00.821Z,18.40
2018-01-16T11:37:28.491Z,16.60
2018-01-16T11:39:56.243Z,15.80
2018-01-16T11:42:23.954Z,14.63
2018-01-16T11:44:51.726Z,10.90
2018-01-16T11:47:19.478Z,11.97
2018-01-16T11:49:47.504Z,15.07
2018-01-16T11:52:15.225Z,16.37
2018-01-16T11:54:42.968Z,14.33
2018-01-16T11:57:10.757Z,13.00
2018-01-16T11:59:39.393Z,13.93
2018-01-16T12:02:07.185Z,15.93
2018-01-16T12:04:34.963Z,13.93
2018-01-16T12:07:02.746Z,13.43
2018-01-16T12:09:30.571Z,27.17
2018-01-16T12:11:58.431Z,19.53
2018-01-16T12:14:26.172Z,15.43
2018-01-16T12:16:53.949Z,15.10
2018-01-16T12:19:21.736Z,15.33
2018-01-16T12:21:50.371Z,14.27
2018-01-16T12:24:18.266Z,13.80
2018-01-16T12:26:46.031Z,12.80
2018-01-16T12:29:13.803Z,12.73
2018-01-16T12:31:42.422Z,13.10
2018-01-16T12:34:10.198Z,13.07
2018-01-16T12:36:37.901Z,13.00
2018-01-16T12:39:05.711Z,16.30
2018-01-16T12:41:33.406Z,13.93
2018-01-16T12:44:01.172Z,12.80
2018-01-16T12:46:28.883Z,14.20
2018-01-16T12:48:56.601Z,12.70
2018-01-16T12:51:24.384Z,11.53
2018-01-16T12:53:52.184Z,13.23
2018-01-16T12:56:19.966Z,14.23
2018-01-16T12:58:47.667Z,13.37
2018-01-16T13:01:15.388Z,13.27
2018-01-16T13:03:43.368Z,11.93
2018-01-16T13:06:11.149Z,12.37
2018-01-16T13:08:38.890Z,11.87
2018-01-16T13:11:07.010Z,14.00
2018-01-16T13:13:34.768Z,14.43
2018-01-16T13:16:02.515Z,13.33
2018-01-16T13:18:30.251Z,14.73
2018-01-16T13:20:58.009Z,12.00
2018-01-16T13:23:25.726Z,12.37
2018-01-16T13:25:53.450Z,11.33
2018-01-16T13:28:21.205Z,12.90
2018-01-16T13:30:49.077Z,12.70
2018-01-16T13:33:16.772Z,14.90
2018-01-16T13:35:44.475Z,14.53
2018-01-16T13:38:12.250Z,14.43
2018-01-16T13:40:39.986Z,14.67
2018-01-16T13:43:07.807Z,14.47
2018-01-16T13:45:35.657Z,12.83
2018-01-16T13:48:03.405Z,12.77
2018-01-16T13:50:31.203Z,13.77
2018-01-16T13:52:58.993Z,12.47
2018-01-16T13:55:26.767Z,13.20
2018-01-16T13:57:54.623Z,15.00
2018-01-16T14:00:22.346Z,14.00
2018-01-16T14:02:50.096Z,12.33
2018-01-16T14:05:17.861Z,12.37
2018-01-16T14:07:45.714Z,12.83
2018-01-16T14:10:13.426Z,13.90
2018-01-16T14:12:41.176Z,12.70
2018-01-16T14:15:08.957Z,13.10
2018-01-16T14:17:36.767Z,13.40
2018-01-16T14:20:04.601Z,12.40
2018-01-16T14:22:32.391Z,13.03
2018-01-16T14:25:00.165Z,13.77
2018-01-16T14:27:27.868Z,16.03
2018-01-16T14:29:55.633Z,15.03
2018-01-16T14:32:23.423Z,15.07
2018-01-16T14:34:52.212Z,13.33
2018-01-16T14:37:20.012Z,11.97
2018-01-16T14:39:47.767Z,12.47
2018-01-16T14:42:15.507Z,12.10
2018-01-16T14:44:43.337Z,14.10
2018-01-16T14:47:11.338Z,13.57
2018-01-16T14:49:39.791Z,14.93
2018-01-16T14:52:08.714Z,13.57
2018-01-16T14:54:37.764Z,11.27
2018-01-16T14:57:06.437Z,14.00
2018-01-16T14:59:34.293Z,14.80
2018-01-16T15:02:01.993Z,12.10
2018-01-16T15:04:29.826Z,12.93
2018-01-16T15:06:57.532Z,11.97
2018-01-16T15:09:25.320Z,11.83
2018-01-16T15:11:53.032Z,11.77
2018-01-16T15:14:20.870Z,11.63
2018-01-16T15:16:48.618Z,11.40
2018-01-16T15:19:16.366Z,11.00
2018-01-16T15:21:44.131Z,11.27
2018-01-16T15:24:11.893Z,10.47
2018-01-16T15:26:39.646Z,10.50
2018-01-16T15:29:07.483Z,17.80
2018-01-16T15:31:35.449Z,17.60
2018-01-16T15:34:03.308Z,16.00
2018-01-16T15:36:31.076Z,16.70
2018-01-16T15:38:58.797Z,15.00
2018-01-16T15:41:26.584Z,14.43
2018-01-16T15:43:55.815Z,18.20
2018-01-16T15:46:23.511Z,16.90
2018-01-16T15:48:51.206Z,17.13
2018-01-16T15:51:19.001Z,18.27
2018-01-16T15:53:46.727Z,16.53
2018-01-16T15:56:14.505Z,15.73
2018-01-16T15:58:42.353Z,17.07
2018-01-16T16:01:10.333Z,20.97
2018-01-16T16:03:38.213Z,23.33
2018-01-16T16:06:06.098Z,22.23
2018-01-16T16:08:34.065Z,20.00
2018-01-16T16:11:01.800Z,14.97
2018-01-16T16:13:29.643Z,14.83
2018-01-16T16:15:58.226Z,14.10
2018-01-16T16:18:26.089Z,16.40
2018-01-16T16:20:53.857Z,16.83
2018-01-16T16:23:21.651Z,14.53
2018-01-16T16:25:50.505Z,14.77
2018-01-16T16:28:18.298Z,13.97
2018-01-16T16:30:46.238Z,13.80
2018-01-16T16:33:14.017Z,12.00
2018-01-16T16:35:42.078Z,14.30
2018-01-16T16:38:09.854Z,15.33
2018-01-16T16:40:37.670Z,14.57
2018-01-16T16:43:05.463Z,12.87
2018-01-16T16:45:33.280Z,15.17
2018-01-16T16:48:01.159Z,14.50
2018-01-16T16:50:28.936Z,15.83
2018-01-16T16:52:57.859Z,15.57
2018-01-16T16:55:25.686Z,17.43
2018-01-16T16:57:53.548Z,16.97
2018-01-16T17:00:21.354Z,17.37
2018-01-16T17:02:49.179Z,17.17
2018-01-16T17:05:16.975Z,16.60
2018-01-16T17:07:44.790Z,18.03
2018-01-16T17:10:12.549Z,14.73
2018-01-16T17:12:40.468Z,16.10
2018-01-16T17:15:08.254Z,18.27
2018-01-16T17:17:36.101Z,14.53
2018-01-16T17:20:03.813Z,11.70
2018-01-16T17:22:31.498Z,11.83
2018-01-16T17:24:59.313Z,10.90
2018-01-16T17:27:27.004Z,14.17
2018-01-16T17:29:54.836Z,12.97
2018-01-16T17:32:22.629Z,14.03
2018-01-16T17:34:50.479Z,14.63
2018-01-16T17:37:18.225Z,14.40
2018-01-16T17:39:46.069Z,13.80
2018-01-16T17:42:14.648Z,12.50
2018-01-16T17:44:42.455Z,11.67
2018-01-16T17:47:10.232Z,12.80
2018-01-16T17:49:38.018Z,14.47
2018-01-16T17:52:05.827Z,10.67
2018-01-16T17:54:33.544Z,10.10
2018-01-16T17:57:01.454Z,12.43
2018-01-16T17:59:29.386Z,17.30
2018-01-16T18:01:57.234Z,11.83
2018-01-16T18:04:25.143Z,10.10
2018-01-16T18:06:53.253Z,9.87
2018-01-16T18:09:21.210Z,8.57
2018-01-16T18:11:49.127Z,9.17
2018-01-16T18:14:17.086Z,8.87
2018-01-16T18:16:44.791Z,6.47
2018-01-16T18:19:12.620Z,5.50
2018-01-16T18:21:40.630Z,4.40
2018-01-16T18:24:08.559Z,4.20
2018-01-16T18:26:36.353Z,3.50
2018-01-16T18:29:04.082Z,4.33
2018-01-16T18:31:32.087Z,3.23
2018-01-16T18:33:59.944Z,3.40
2018-01-16T18:36:28.295Z,8.53
2018-01-16T18:38:56.104Z,14.57
2018-01-16T18:41:26.366Z,14.23
2018-01-16T18:43:57.994Z,10.90
2018-01-16T18:46:27.057Z,12.50
2018-01-16T18:48:55.517Z,13.10
2018-01-16T18:51:23.383Z,14.50
2018-01-16T18:53:52.260Z,12.13
2018-01-16T18:56:19.992Z,14.50
2018-01-16T18:58:47.845Z,12.27
2018-01-16T19:01:15.703Z,13.20
2018-01-16T19:03:43.840Z,16.03
2018-01-16T19:06:11.713Z,16.80
2018-01-16T19:08:39.584Z,15.50
2018-01-16T19:11:07.479Z,14.20
2018-01-16T19:13:35.342Z,12.67
2018-01-16T19:16:03.462Z,13.10
2018-01-16T19:18:32.728Z,15.60
2018-01-16T19:21:01.524Z,15.30
2018-01-16T19:23:29.807Z,14.20
2018-01-16T19:26:01.400Z,17.30
2018-01-16T19:28:36.140Z,16.67
2018-01-16T19:31:04.601Z,18.30
2018-01-16T19:33:32.359Z,17.20
2018-01-16T19:36:01.534Z,15.20
2018-01-16T19:38:29.373Z,14.70
2018-01-16T19:40:58.958Z,16.60
2018-01-16T19:43:29.398Z,18.70
2018-01-16T19:45:59.837Z,18.90
2018-01-16T19:48:27.679Z,17.33
2018-01-16T19:50:58.869Z,15.30
2018-01-16T19:53:26.665Z,16.53
2018-01-16T19:55:54.777Z,19.30
2018-01-16T19:58:22.692Z,19.00
2018-01-16T20:00:52.513Z,18.93
2018-01-16T20:03:20.655Z,15.60
2018-01-16T20:05:50.570Z,16.93
2018-01-16T20:08:22.113Z,17.37
2018-01-16T20:10:49.880Z,15.73
2018-01-16T20:13:18.150Z,14.93
2018-01-16T20:15:46.130Z,15.23
2018-01-16T20:18:14.137Z,17.20
2018-01-16T20:20:41.895Z,16.17
2018-01-16T20:23:10.773Z,18.00
2018-01-16T20:25:38.550Z,14.17
2018-01-16T20:28:06.409Z,14.80
2018-01-16T20:30:34.313Z,13.27
2018-01-16T20:33:02.346Z,12.77
2018-01-16T20:35:30.511Z,11.83
2018-01-16T20:37:58.380Z,11.30
2018-01-16T20:40:27.451Z,10.87
2018-01-16T20:42:56.893Z,7.93
2018-01-16T20:45:24.781Z,7.53
2018-01-16T20:47:52.594Z,8.50
2018-01-16T20:50:20.858Z,7.97
2018-01-16T20:52:48.777Z,7.33
2018-01-16T20:55:18.900Z,6.30
2018-01-16T20:57:47.674Z,6.93
2018-01-16T21:00:15.557Z,4.03
2018-01-16T21:02:44.665Z,4.00
2018-01-16T21:05:16.131Z,2.90
2018-01-16T21:07:44.182Z,3.07
2018-01-16T21:10:11.930Z,3.27
2018-01-16T21:12:39.637Z,2.87
2018-01-16T21:15:07.384Z,3.07
2018-01-16T21:17:35.127Z,3.57
2018-01-16T21:20:02.970Z,2.53
2018-01-16T21:22:31.324Z,3.07
2018-01-16T21:25:00.870Z,4.70
2018-01-16T21:27:28.615Z,11.20
2018-01-16T21:29:56.369Z,8.80
2018-01-16T21:32:24.098Z,8.97
2018-01-16T21:34:51.879Z,9.10
2018-01-16T21:37:19.752Z,10.83
2018-01-16T21:39:47.416Z,10.00
2018-01-16T21:42:15.076Z,9.33
2018-01-16T21:44:42.842Z,7.80
2018-01-16T21:47:10.606Z,8.77
2018-01-16T21:49:38.396Z,8.00
2018-01-16T21:52:06.094Z,7.33
2018-01-16T21:54:33.846Z,8.37
2018-01-16T21:57:01.570Z,7.33
2018-01-16T21:59:29.444Z,6.23
2018-01-16T22:01:57.134Z,5.00
2018-01-16T22:04:24.918Z,4.90
2018-01-16T22:06:52.696Z,5.37
2018-01-16T22:09:20.417Z,5.30
2018-01-16T22:11:48.176Z,5.10
2018-01-16T22:14:15.944Z,5.30
2018-01-16T22:16:43.652Z,6.43
2018-01-16T22:19:11.399Z,6.60
2018-01-16T22:21:39.056Z,6.60
2018-01-16T22:24:06.769Z,6.00
2018-01-16T22:26:34.572Z,6.93
2018-01-16T22:29:02.322Z,7.07
2018-01-16T22:31:30.086Z,6.93
2018-01-16T22:33:58.718Z,6.33
2018-01-16T22:36:26.449Z,6.80
2018-01-16T22:38:54.204Z,5.00
2018-01-16T22:41:21.922Z,6.27
2018-01-16T22:43:49.712Z,7.00
2018-01-16T22:46:17.477Z,7.10
2018-01-16T22:48:45.186Z,7.00
2018-01-16T22:51:12.972Z,6.90
2018-01-16T22:53:40.771Z,6.47
2018-01-16T22:56:08.611Z,6.97
2018-01-16T22:58:36.381Z,6.20
2018-01-16T23:01:04.110Z,6.17
2018-01-16T23:03:31.896Z,6.10
2018-01-16T23:05:59.652Z,6.70
2018-01-16T23:08:27.438Z,4.97
2018-01-16T23:10:55.321Z,4.23
2018-01-16T23:13:23.108Z,4.30
2018-01-16T23:15:50.800Z,3.07
2018-01-16T23:18:18.516Z,3.97
2018-01-16T23:20:46.285Z,6.27
2018-01-16T23:23:14.010Z,5.30
2018-01-16T23:25:41.680Z,6.30
2018-01-16T23:28:09.417Z,6.60
2018-01-16T23:30:37.078Z,5.93
2018-01-16T23:33:04.797Z,6.80
2018-01-16T23:35:32.460Z,7.00
2018-01-16T23:38:00.125Z,7.83
2018-01-16T23:40:27.866Z,7.33
2018-01-16T23:42:55.619Z,7.70
2018-01-16T23:45:23.295Z,6.73
2018-01-16T23:47:51.029Z,6.43
2018-01-16T23:50:18.721Z,7.13
2018-01-16T23:52:46.588Z,5.93
2018-01-16T23:55:14.279Z,5.40
2018-01-16T23:57:41.939Z,5.53
